createdAt,value
2023-01-03T00:00:01.990Z,92999.22
2023-01-03T00:02:34.564Z,92989.38
2023-01-03T00:05:08.169Z,92993.28
2023-01-03T00:07:40.485Z,92998.75
2023-01-03T00:10:12.826Z,92992.38
2023-01-03T00:12:45.259Z,92992.16
2023-01-03T00:15:18.503Z,92990.72
2023-01-03T00:17:52.058Z,92988.13
2023-01-03T00:20:25.296Z,92991.28
2023-01-03T00:22:59.237Z,92993.63
2023-01-03T00:25:31.652Z,92988.47
2023-01-03T00:28:04.475Z,92993.88
2023-01-03T00:30:37.544Z,92991.84
2023-01-03T00:33:09.921Z,93000.69
2023-01-03T00:35:42.297Z,93004.84
2023-01-03T00:38:14.649Z,92995.28
2023-01-03T00:40:47.005Z,92994.75
2023-01-03T00:43:31.070Z,92996.53
2023-01-03T00:46:05.068Z,92989.81
2023-01-03T00:48:38.461Z,92996.09
2023-01-03T00:51:13.120Z,92989.59
2023-01-03T00:53:47.753Z,92995.28
2023-01-03T00:56:21.659Z,92992.16
2023-01-03T00:58:54.914Z,92993.06
2023-01-03T01:01:29.814Z,92996.66
2023-01-03T01:04:05.189Z,92974.25
2023-01-03T01:06:40.141Z,92987.91
2023-01-03T01:09:15.470Z,92994.53
2023-01-03T01:11:48.280Z,92990.38
2023-01-03T01:14:22.706Z,92992.19
2023-01-03T01:16:57.998Z,92987.81
2023-01-03T01:19:37.742Z,92984.09
2023-01-03T01:22:10.754Z,92983.88
2023-01-03T01:24:43.170Z,92982.75
2023-01-03T01:27:15.547Z,92982.69
2023-01-03T01:29:48.009Z,92979.19
2023-01-03T01:32:21.088Z,92973.34
2023-01-03T01:34:53.404Z,92978.97
2023-01-03T01:37:25.733Z,92974.38
2023-01-03T01:39:58.076Z,92976.41
2023-01-03T01:42:48.650Z,92973.28
2023-01-03T01:45:21.095Z,92974.50
2023-01-03T01:47:59.045Z,92974.25
2023-01-03T01:50:37.483Z,92973.72
2023-01-03T01:53:12.631Z,92976.28
2023-01-03T01:55:50.861Z,92964.41
2023-01-03T01:58:26.813Z,92969.25
2023-01-03T02:00:59.424Z,92978.22
2023-01-03T02:03:32.593Z,92972.25
2023-01-03T02:06:08.089Z,92963.41
2023-01-03T02:08:40.652Z,92968.91
2023-01-03T02:11:27.626Z,92966.09
2023-01-03T02:14:25.704Z,92966.88
2023-01-03T02:17:06.576Z,92952.75
2023-01-03T02:20:06.410Z,92961.72
2023-01-03T02:23:21.301Z,92950.63
2023-01-03T02:26:23.615Z,92960.38
2023-01-03T02:29:19.561Z,92952.75
2023-01-03T02:32:00.940Z,92954.69
2023-01-03T02:34:41.311Z,92950.97
2023-01-03T02:37:20.952Z,92955.16
2023-01-03T02:40:01.317Z,92944.72
2023-01-03T02:43:01.465Z,92947.63
2023-01-03T02:45:47.967Z,92952.34
2023-01-03T02:48:31.891Z,92950.19
2023-01-03T02:51:10.534Z,92951.78
2023-01-03T02:53:46.692Z,92950.53
2023-01-03T02:56:23.959Z,92958.03
2023-01-03T02:58:59.965Z,92949.53
2023-01-03T03:01:35.254Z,92952.56
2023-01-03T03:04:08.550Z,92951.00
2023-01-03T03:06:47.311Z,92943.63
2023-01-03T03:09:19.841Z,92945.94
2023-01-03T03:12:12.325Z,92947.50
2023-01-03T03:14:48.762Z,92943.94
2023-01-03T03:17:27.974Z,92940.25
2023-01-03T03:20:19.670Z,92940.69
2023-01-03T03:23:16.528Z,92940.78
2023-01-03T03:25:52.733Z,92937.88
2023-01-03T03:28:35.069Z,92937.00
2023-01-03T03:31:13.118Z,92939.56
2023-01-03T03:33:48.903Z,92935.19
2023-01-03T03:36:32.456Z,92934.09
2023-01-03T03:39:28.810Z,92938.44
2023-01-03T03:42:33.993Z,92938.13
2023-01-03T03:45:15.864Z,92941.47
2023-01-03T03:47:53.882Z,92939.34
2023-01-03T03:50:30.827Z,92952.34
2023-01-03T03:53:07.386Z,92945.63
2023-01-03T03:55:44.237Z,92952.88
2023-01-03T03:58:22.745Z,92942.59
2023-01-03T04:00:56.655Z,92947.06
2023-01-03T04:03:30.100Z,92951.44
2023-01-03T04:06:09.648Z,92945.75
2023-01-03T04:08:42.865Z,92946.50
2023-01-03T04:11:15.259Z,92942.38
2023-01-03T04:13:47.596Z,92950.66
2023-01-03T04:16:19.913Z,92945.06
2023-01-03T04:18:52.554Z,92945.28
2023-01-03T04:21:25.097Z,92940.13
2023-01-03T04:23:58.157Z,92945.16
2023-01-03T04:26:30.530Z,92949.31
2023-01-03T04:29:03.247Z,92944.41
2023-01-03T04:31:35.633Z,92943.81
2023-01-03T04:34:08.245Z,92942.59
2023-01-03T04:36:40.579Z,92949.75
2023-01-03T04:39:14.030Z,92949.09
2023-01-03T04:41:46.381Z,92949.09
2023-01-03T04:44:18.507Z,92952.66
2023-01-03T04:46:53.055Z,92954.47
2023-01-03T04:49:25.751Z,92964.31
2023-01-03T04:51:58.100Z,92963.06
2023-01-03T04:54:31.295Z,92968.00
2023-01-03T04:57:03.805Z,92971.38
2023-01-03T04:59:36.533Z,92967.78
2023-01-03T05:02:08.993Z,92968.00
2023-01-03T05:04:41.605Z,92967.78
2023-01-03T05:07:13.980Z,92967.78
2023-01-03T05:09:47.145Z,92967.78
2023-01-03T05:12:19.683Z,92973.16
2023-01-03T05:14:52.135Z,92976.97
2023-01-03T05:17:24.468Z,92981.56
2023-01-03T05:20:14.884Z,92980.53
2023-01-03T05:23:05.457Z,92980.97
2023-01-03T05:25:50.788Z,92986.13
2023-01-03T05:28:23.859Z,92987.00
2023-01-03T05:30:57.655Z,92984.78
2023-01-03T05:33:30.179Z,92975.59
2023-01-03T05:36:05.158Z,92983.00
2023-01-03T05:38:38.183Z,92977.94
2023-01-03T05:41:13.281Z,92983.78
2023-01-03T05:43:45.702Z,92983.00
2023-01-03T05:46:18.168Z,92977.72
2023-01-03T05:48:50.510Z,92981.97
2023-01-03T05:51:22.898Z,92974.59
2023-01-03T05:53:55.249Z,92977.16
2023-01-03T05:56:29.837Z,92977.94
2023-01-03T05:59:02.287Z,92982.75
2023-01-03T06:01:35.463Z,92977.25
2023-01-03T06:04:08.135Z,92990.13
2023-01-03T06:06:40.560Z,92990.72
2023-01-03T06:09:12.888Z,92993.72
2023-01-03T06:11:46.011Z,92988.56
2023-01-03T06:14:19.350Z,93000.19
2023-01-03T06:17:09.197Z,92990.69
2023-01-03T06:19:41.550Z,92986.75
2023-01-03T06:22:13.948Z,92989.13
2023-01-03T06:24:46.290Z,92994.94
2023-01-03T06:27:19.538Z,92989.78
2023-01-03T06:29:51.845Z,92988.78
2023-01-03T06:32:24.249Z,92983.06
2023-01-03T06:34:56.627Z,92990.59
2023-01-03T06:37:29.025Z,92985.78
2023-01-03T06:40:01.498Z,92992.91
2023-01-03T06:42:41.937Z,92992.50
2023-01-03T06:45:32.696Z,92999.56
2023-01-03T06:48:24.087Z,92996.97
2023-01-03T06:51:25.787Z,93002.59
2023-01-03T06:53:59.552Z,93006.72
2023-01-03T06:56:31.900Z,93009.09
2023-01-03T06:59:05.128Z,93005.63
2023-01-03T07:01:38.666Z,93010.53
2023-01-03T07:04:11.715Z,93010.91
2023-01-03T07:06:44.420Z,93015.69
2023-01-03T07:09:17.715Z,93013.47
2023-01-03T07:11:50.274Z,93010.91
2023-01-03T07:14:22.944Z,93010.22
2023-01-03T07:16:55.279Z,93010.44
2023-01-03T07:19:27.739Z,93017.06
2023-01-03T07:22:00.136Z,93020.53
2023-01-03T07:24:32.916Z,93027.63
2023-01-03T07:27:05.286Z,93025.38
2023-01-03T07:29:38.347Z,93031.00
2023-01-03T07:32:10.697Z,93026.97
2023-01-03T07:34:43.133Z,93029.63
2023-01-03T07:37:15.448Z,93033.13
2023-01-03T07:39:47.799Z,93020.13
2023-01-03T07:42:37.955Z,93032.22
2023-01-03T07:45:11.360Z,93022.59
2023-01-03T07:47:44.094Z,93025.84
2023-01-03T07:50:16.651Z,93033.31
2023-01-03T07:52:48.908Z,93038.38
2023-01-03T07:55:21.275Z,93030.97
2023-01-03T07:57:53.582Z,93036.88
2023-01-03T08:00:27.316Z,93041.22
2023-01-03T08:02:59.766Z,93043.44
2023-01-03T08:05:33.605Z,93044.66
2023-01-03T08:08:06.533Z,93043.84
2023-01-03T08:10:57.297Z,93043.56
2023-01-03T08:13:29.623Z,93049.72
2023-01-03T08:16:02.858Z,93046.50
2023-01-03T08:18:35.212Z,93050.13
2023-01-03T08:21:09.725Z,93043.91
2023-01-03T08:23:42.741Z,93049.78
2023-01-03T08:26:16.550Z,93050.00
2023-01-03T08:28:48.861Z,93038.31
2023-01-03T08:31:23.386Z,93043.97
2023-01-03T08:34:00.821Z,93045.41
2023-01-03T08:36:38.517Z,93041.16
2023-01-03T08:39:14.165Z,93042.94
2023-01-03T08:41:52.655Z,93044.94
2023-01-03T08:44:25.974Z,93035.75
2023-01-03T08:47:02.105Z,93036.47
2023-01-03T08:49:34.583Z,93042.31
2023-01-03T08:52:07.248Z,93039.84
2023-01-03T08:54:40.623Z,93029.31
2023-01-03T08:57:13.061Z,93026.38
2023-01-03T08:59:45.415Z,93032.22
2023-01-03T09:02:18.748Z,93034.91
2023-01-03T09:04:51.261Z,93023.88
2023-01-03T09:07:23.805Z,93023.72
2023-01-03T09:09:56.111Z,93030.53
2023-01-03T09:12:28.523Z,93027.28
2023-01-03T09:15:00.856Z,93025.53
2023-01-03T09:17:34.045Z,93018.34
2023-01-03T09:20:07.783Z,93022.78
2023-01-03T09:22:40.236Z,93025.97
2023-01-03T09:25:12.567Z,93023.13
2023-01-03T09:27:46.454Z,93024.72
2023-01-03T09:30:19.483Z,93013.75
2023-01-03T09:32:52.726Z,93000.72
2023-01-03T09:35:25.140Z,93002.47
2023-01-03T09:37:57.555Z,93000.03
2023-01-03T09:40:30.796Z,92996.78
2023-01-03T09:43:13.828Z,92990.66
2023-01-03T09:45:50.141Z,92986.06
2023-01-03T09:48:35.663Z,92983.53
2023-01-03T09:51:30.757Z,92988.63
2023-01-03T09:54:22.278Z,92975.28
2023-01-03T09:57:12.945Z,92976.78
2023-01-03T10:00:03.415Z,92971.47
2023-01-03T10:03:12.343Z,92958.63
2023-01-03T10:06:05.237Z,92962.44
2023-01-03T10:08:56.237Z,92957.41
2023-01-03T10:11:39.037Z,92955.03
2023-01-03T10:14:28.586Z,92940.44
2023-01-03T10:17:11.671Z,92946.97
2023-01-03T10:20:08.003Z,92939.78
2023-01-03T10:22:41.140Z,92930.19
2023-01-03T10:25:17.128Z,92930.06
2023-01-03T10:27:51.733Z,92929.44
2023-01-03T10:30:36.848Z,92917.53
2023-01-03T10:33:29.068Z,92915.28
2023-01-03T10:36:01.499Z,92912.41
2023-01-03T10:38:42.571Z,92902.16
2023-01-03T10:41:21.326Z,92908.13
2023-01-03T10:43:58.469Z,92904.81
2023-01-03T10:46:31.527Z,92895.50
2023-01-03T10:49:27.469Z,92900.22
2023-01-03T10:52:09.165Z,92892.69
2023-01-03T10:54:50.819Z,92889.31
2023-01-03T10:57:38.498Z,92876.50
2023-01-03T11:00:26.229Z,92877.91
2023-01-03T11:03:11.481Z,92871.47
2023-01-03T11:05:46.492Z,92866.41
2023-01-03T11:08:21.894Z,92863.91
2023-01-03T11:10:57.456Z,92863.25
2023-01-03T11:13:34.411Z,92851.00
2023-01-03T11:16:14.793Z,92857.16
2023-01-03T11:18:59.482Z,92847.41
2023-01-03T11:21:41.053Z,92853.16
2023-01-03T11:24:26.958Z,92843.91
2023-01-03T11:27:09.761Z,92840.03
2023-01-03T11:30:05.947Z,92841.06
2023-01-03T11:32:51.461Z,92839.66
2023-01-03T11:35:39.537Z,92836.13
2023-01-03T11:38:26.619Z,92828.22
2023-01-03T11:41:11.744Z,92830.16
2023-01-03T11:43:57.905Z,92821.97
2023-01-03T11:46:42.334Z,92819.03
2023-01-03T11:49:25.893Z,92821.34
2023-01-03T11:52:17.573Z,92825.09
2023-01-03T11:55:16.775Z,92812.53
2023-01-03T11:58:02.460Z,92810.94
2023-01-03T12:00:43.500Z,92805.72
2023-01-03T12:03:28.130Z,92805.63
2023-01-03T12:06:07.573Z,92803.47
2023-01-03T12:09:05.471Z,92802.31
2023-01-03T12:12:00.971Z,92803.53
2023-01-03T12:14:39.742Z,92807.84
2023-01-03T12:17:17.792Z,92809.63
2023-01-03T12:19:56.826Z,92806.06
2023-01-03T12:22:35.646Z,92807.50
2023-01-03T12:25:18.515Z,92804.19
2023-01-03T12:27:56.247Z,92797.22
2023-01-03T12:30:37.816Z,92804.41
2023-01-03T12:33:22.013Z,92807.19
2023-01-03T12:36:01.352Z,92801.00
2023-01-03T12:38:37.929Z,92796.88
2023-01-03T12:41:25.090Z,92797.97
2023-01-03T12:44:03.230Z,92794.41
2023-01-03T12:46:40.865Z,92799.03
2023-01-03T12:49:18.525Z,92796.88
2023-01-03T12:51:51.124Z,92799.97
2023-01-03T12:54:37.194Z,92804.13
2023-01-03T12:57:24.936Z,92805.06
2023-01-03T13:00:21.232Z,92804.91
2023-01-03T13:02:58.058Z,92814.00
2023-01-03T13:05:37.975Z,92809.81
2023-01-03T13:08:31.038Z,92812.38
2023-01-03T13:11:07.127Z,92822.91
2023-01-03T13:13:49.405Z,92817.13
2023-01-03T13:16:41.542Z,92819.69
2023-01-03T13:19:40.586Z,92825.81
2023-01-03T13:22:39.837Z,92819.31
2023-01-03T13:25:38.682Z,92816.31
2023-01-03T13:28:31.205Z,92819.69
2023-01-03T13:31:47.082Z,92822.25
2023-01-03T13:34:34.433Z,92817.75
2023-01-03T13:37:25.335Z,92818.47
2023-01-03T13:40:18.550Z,92818.84
2023-01-03T13:43:02.963Z,92818.91
2023-01-03T13:45:57.473Z,92814.28
2023-01-03T13:48:38.325Z,92812.38
2023-01-03T13:51:47.021Z,92815.75
2023-01-03T13:54:56.863Z,92811.94
2023-01-03T13:57:34.881Z,92804.66
2023-01-03T14:00:19.057Z,92804.81
2023-01-03T14:03:30.184Z,92808.47
2023-01-03T14:06:36.172Z,92817.19
2023-01-03T14:09:32.828Z,92815.81
2023-01-03T14:12:41.436Z,92818.78
2023-01-03T14:15:25.261Z,92820.16
2023-01-03T14:18:07.087Z,92820.00
2023-01-03T14:20:42.652Z,92814.63
2023-01-03T14:23:57.702Z,92823.75
2023-01-03T14:26:14.744Z,92821.72
2023-01-03T14:28:49.730Z,92821.31
2023-01-03T14:31:26.047Z,92825.84
2023-01-03T14:34:00.281Z,92826.22
2023-01-03T14:36:45.607Z,92830.13
2023-01-03T14:42:03.906Z,92838.38
2023-01-03T14:44:36.244Z,92834.50
2023-01-03T14:47:17.305Z,92825.84
2023-01-03T14:49:52.160Z,92834.00
2023-01-03T14:52:30.195Z,92832.09
2023-01-03T14:55:06.751Z,92831.19
2023-01-03T14:57:42.706Z,92836.53
2023-01-03T15:00:19.054Z,92812.00
2023-01-03T15:02:53.645Z,92834.41
2023-01-03T15:05:30.457Z,92833.25
2023-01-03T15:08:10.039Z,92834.22
2023-01-03T15:10:45.236Z,92832.91
2023-01-03T15:13:22.194Z,92840.81
2023-01-03T15:15:56.466Z,92848.19
2023-01-03T15:18:32.309Z,92848.19
2023-01-03T15:21:05.568Z,92848.94
2023-01-03T15:23:40.034Z,92849.50
2023-01-03T15:26:21.500Z,92850.56
2023-01-03T15:28:56.186Z,92845.66
2023-01-03T15:31:33.086Z,92847.78
2023-01-03T15:34:14.917Z,92853.69
2023-01-03T15:36:51.486Z,92854.50
2023-01-03T15:39:28.884Z,92857.28
2023-01-03T15:42:43.931Z,92862.63
2023-01-03T15:45:18.811Z,92851.78
2023-01-03T15:47:54.956Z,92867.75
2023-01-03T15:50:40.027Z,92864.25
2023-01-03T15:53:22.084Z,92868.75
2023-01-03T15:55:58.994Z,92866.81
2023-01-03T15:58:32.151Z,92865.09
2023-01-03T16:01:06.391Z,92869.69
2023-01-03T16:03:39.628Z,92868.44
2023-01-03T16:06:12.737Z,92882.00
2023-01-03T16:08:45.474Z,92878.38
2023-01-03T16:11:20.837Z,92882.91
2023-01-03T16:13:55.327Z,92882.47
2023-01-03T16:16:31.968Z,92885.06
2023-01-03T16:19:06.044Z,92876.28
2023-01-03T16:21:39.148Z,92887.44
2023-01-03T16:24:15.462Z,92891.88
2023-01-03T16:26:47.991Z,92890.66
2023-01-03T16:29:20.280Z,92890.66
2023-01-03T16:31:52.749Z,92904.03
2023-01-03T16:34:28.853Z,92901.13
2023-01-03T16:37:09.600Z,92908.44
2023-01-03T16:39:47.699Z,92895.44
2023-01-03T16:42:26.582Z,92914.69
2023-01-03T16:44:58.908Z,92915.97
2023-01-03T16:47:34.315Z,92908.69
2023-01-03T16:50:12.557Z,92925.06
2023-01-03T16:52:47.834Z,92931.06
2023-01-03T16:55:25.840Z,92924.53
2023-01-03T16:57:58.707Z,92928.16
2023-01-03T17:00:33.173Z,92930.00
2023-01-03T17:03:05.702Z,92936.47
2023-01-03T17:05:38.878Z,92934.91
2023-01-03T17:08:20.310Z,92929.72
2023-01-03T17:10:55.656Z,92931.50
2023-01-03T17:13:31.913Z,92929.97
2023-01-03T17:16:06.811Z,92927.63
2023-01-03T17:18:41.457Z,92922.69
2023-01-03T17:21:22.500Z,92922.66
2023-01-03T17:24:00.376Z,92925.19
2023-01-03T17:26:34.325Z,92915.06
2023-01-03T17:29:11.152Z,92923.34
2023-01-03T17:31:43.657Z,92934.63
2023-01-03T17:34:21.879Z,92922.72
2023-01-03T17:36:55.928Z,92918.84
2023-01-03T17:39:29.065Z,92924.06
2023-01-03T17:42:15.421Z,92927.41
2023-01-03T17:45:10.289Z,92929.00
2023-01-03T17:48:01.802Z,92927.22
2023-01-03T17:50:34.295Z,92920.47
2023-01-03T17:53:10.167Z,92927.47
2023-01-03T17:55:44.222Z,92935.00
2023-01-03T17:58:19.749Z,92927.13
2023-01-03T18:00:52.110Z,92924.81
2023-01-03T18:03:24.813Z,92933.34
2023-01-03T18:05:58.093Z,92932.34
2023-01-03T18:08:30.472Z,92933.13
2023-01-03T18:11:06.620Z,92936.78
2023-01-03T18:13:39.649Z,92939.03
2023-01-03T18:16:14.994Z,92939.06
2023-01-03T18:18:48.225Z,92940.31
2023-01-03T18:21:22.775Z,92938.94
2023-01-03T18:23:57.126Z,92946.47
2023-01-03T18:26:33.721Z,92948.84
2023-01-03T18:29:07.349Z,92943.69
2023-01-03T18:31:39.824Z,92941.34
2023-01-03T18:34:12.999Z,92949.38
2023-01-03T18:36:49.532Z,92957.97
2023-01-03T18:39:26.031Z,92959.97
2023-01-03T18:42:19.223Z,92959.69
2023-01-03T18:44:51.524Z,92969.03
2023-01-03T18:47:24.620Z,92971.00
2023-01-03T18:49:56.888Z,92965.03
2023-01-03T18:52:32.857Z,92972.91
2023-01-03T18:55:11.780Z,92973.94
2023-01-03T18:57:46.106Z,92960.53
2023-01-03T19:00:21.121Z,92958.47
2023-01-03T19:02:54.134Z,92970.25
2023-01-03T19:05:26.767Z,92963.53
2023-01-03T19:07:59.694Z,92977.13
2023-01-03T19:10:32.243Z,92978.13
2023-01-03T19:13:05.765Z,92943.03
2023-01-03T19:15:38.181Z,92975.84
2023-01-03T19:18:10.618Z,92977.28
2023-01-03T19:20:43.048Z,92971.31
2023-01-03T19:23:21.920Z,92982.94
2023-01-03T19:25:54.911Z,92962.38
2023-01-03T19:28:28.340Z,92969.41
2023-01-03T19:31:00.986Z,92970.97
2023-01-03T19:33:33.424Z,92974.94
2023-01-03T19:36:13.781Z,92966.41
2023-01-03T19:38:46.221Z,92965.19
2023-01-03T19:41:19.524Z,92971.19
2023-01-03T19:43:52.842Z,92966.47
2023-01-03T19:46:25.385Z,92967.59
2023-01-03T19:48:57.829Z,92970.97
2023-01-03T19:51:30.191Z,92977.91
2023-01-03T19:54:02.586Z,92971.19
2023-01-03T19:56:35.019Z,92953.13
2023-01-03T19:59:19.163Z,92963.97
2023-01-03T20:02:23.647Z,92960.41
2023-01-03T20:04:44.321Z,92959.44
2023-01-03T20:07:16.758Z,92963.06
2023-01-03T20:09:49.212Z,92966.72
2023-01-03T20:12:25.557Z,92965.16
2023-01-03T20:15:04.626Z,92964.81
2023-01-03T20:17:39.453Z,92960.44
2023-01-03T20:20:12.560Z,92958.81
2023-01-03T20:25:38.244Z,92964.56
2023-01-03T20:28:16.756Z,92952.94
2023-01-03T20:30:50.045Z,92960.28
2023-01-03T20:33:22.673Z,92957.56
2023-01-03T20:36:12.600Z,92946.78
2023-01-03T20:38:48.771Z,92952.75
2023-01-03T20:41:35.004Z,92959.78
2023-01-03T20:44:07.671Z,92967.63
2023-01-03T20:46:40.812Z,92964.66
2023-01-03T20:49:16.598Z,92968.63
2023-01-03T20:51:49.419Z,92962.50
2023-01-03T20:54:22.397Z,92961.19
2023-01-03T20:56:54.830Z,92967.63
2023-01-03T20:59:28.510Z,92958.34
2023-01-03T21:02:01.903Z,92960.69
2023-01-03T21:04:34.382Z,92966.38
2023-01-03T21:07:11.640Z,92965.69
2023-01-03T21:09:44.326Z,92961.50
2023-01-03T21:12:16.662Z,92965.97
2023-01-03T21:14:49.013Z,92967.06
2023-01-03T21:17:22.243Z,92967.84
2023-01-03T21:19:54.556Z,92960.69
2023-01-03T21:22:26.942Z,92968.06
2023-01-03T21:25:01.234Z,92958.38
2023-01-03T21:27:35.098Z,92970.28
2023-01-03T21:30:09.136Z,92967.25
2023-01-03T21:32:42.587Z,92965.31
2023-01-03T21:35:16.809Z,92972.56
2023-01-03T21:37:50.804Z,92967.25
2023-01-03T21:40:25.224Z,92973.03
2023-01-03T21:43:05.556Z,92973.25
2023-01-03T21:45:40.207Z,92970.97
2023-01-03T21:48:15.423Z,92967.41
2023-01-03T21:50:49.391Z,92975.69
2023-01-03T21:53:22.818Z,92975.56
2023-01-03T21:55:55.162Z,92970.41
2023-01-03T21:58:27.633Z,92966.31
2023-01-03T22:01:09.551Z,92958.03
2023-01-03T22:04:00.878Z,92984.44
2023-01-03T22:06:34.387Z,92985.06
2023-01-03T22:09:26.774Z,92983.09
2023-01-03T22:11:59.109Z,92981.22
2023-01-03T22:14:31.869Z,92967.34
2023-01-03T22:17:04.198Z,92972.47
2023-01-03T22:19:37.448Z,92966.66
2023-01-03T22:22:10.107Z,92970.94
2023-01-03T22:24:42.572Z,92972.34
2023-01-03T22:27:16.099Z,92965.19
2023-01-03T22:29:48.527Z,92964.78
2023-01-03T22:32:22.650Z,92963.28
2023-01-03T22:34:55.941Z,92963.50
2023-01-03T22:37:28.313Z,92960.16
2023-01-03T22:40:00.930Z,92965.41
2023-01-03T22:42:33.760Z,92970.13
2023-01-03T22:45:07.653Z,92961.78
2023-01-03T22:47:39.946Z,92959.47
2023-01-03T22:50:13.017Z,92967.00
2023-01-03T22:52:45.382Z,92965.69
2023-01-03T22:55:17.780Z,92970.13
2023-01-03T22:57:50.095Z,92970.84
2023-01-03T23:00:22.562Z,92974.03
2023-01-03T23:02:54.909Z,92960.25
2023-01-03T23:05:28.126Z,92967.50
2023-01-03T23:08:00.910Z,92973.16
2023-01-03T23:10:33.533Z,92969.78
2023-01-03T23:13:06.035Z,92969.47
2023-01-03T23:15:38.397Z,92962.59
2023-01-03T23:18:10.686Z,92961.00
2023-01-03T23:20:48.108Z,92965.25
2023-01-03T23:23:20.421Z,92967.59
2023-01-03T23:25:53.068Z,92963.97
2023-01-03T23:28:25.514Z,92956.06
2023-01-03T23:30:58.172Z,92961.94
2023-01-03T23:33:31.420Z,92959.94
2023-01-03T23:36:05.382Z,92955.22
2023-01-03T23:38:37.861Z,92945.75
2023-01-03T23:41:10.390Z,92954.22
2023-01-03T23:43:43.555Z,92944.50
2023-01-03T23:46:18.615Z,92945.69
2023-01-03T23:48:53.989Z,92948.69
2023-01-03T23:51:27.574Z,92943.38
2023-01-03T23:53:59.997Z,92949.91
2023-01-03T23:56:33.137Z,92945.13
2023-01-03T23:59:05.604Z,92947.50
